sensor_id;sensor_type;location;lat;lon;timestamp;pressure;altitude;pressure_sealevel;temperature;humidity
4022;BME280;2025;48.260;16.432;2023-07-08T00:00:09;100387.84;;;14.62;74.38
4022;BME280;2025;48.260;16.432;2023-07-08T00:02:37;100386.53;;;14.58;74.58
4022;BME280;2025;48.260;16.432;2023-07-08T00:05:04;100394.50;;;14.58;74.57
4022;BME280;2025;48.260;16.432;2023-07-08T00:07:32;100406.44;;;14.54;74.94
4022;BME280;2025;48.260;16.432;2023-07-08T00:09:59;100410.91;;;14.53;75.02
4022;BME280;2025;48.260;16.432;2023-07-08T00:12:26;100406.50;;;14.46;74.59
4022;BME280;2025;48.260;16.432;2023-07-08T00:14:53;100410.78;;;14.47;74.35
4022;BME280;2025;48.260;16.432;2023-07-08T00:17:21;100410.88;;;14.39;74.85
4022;BME280;2025;48.260;16.432;2023-07-08T00:19:48;100401.25;;;14.38;74.76
4022;BME280;2025;48.260;16.432;2023-07-08T00:22:16;100399.25;;;14.40;74.70
4022;BME280;2025;48.260;16.432;2023-07-08T00:24:44;100401.09;;;14.39;74.91
4022;BME280;2025;48.260;16.432;2023-07-08T00:27:12;100407.72;;;14.35;74.88
4022;BME280;2025;48.260;16.432;2023-07-08T00:29:39;100407.72;;;14.35;74.96
4022;BME280;2025;48.260;16.432;2023-07-08T00:32:14;100405.44;;;14.32;75.04
4022;BME280;2025;48.260;16.432;2023-07-08T00:34:41;100404.50;;;14.25;75.25
4022;BME280;2025;48.260;16.432;2023-07-08T00:37:11;100415.81;;;14.19;75.12
4022;BME280;2025;48.260;16.432;2023-07-08T00:39:38;100411.69;;;14.16;75.24
4022;BME280;2025;48.260;16.432;2023-07-08T00:42:14;100411.84;;;14.15;75.36
4022;BME280;2025;48.260;16.432;2023-07-08T00:44:43;100407.75;;;14.12;75.47
4022;BME280;2025;48.260;16.432;2023-07-08T00:47:12;100408.59;;;14.12;75.49
4022;BME280;2025;48.260;16.432;2023-07-08T00:49:44;100400.00;;;14.10;75.92
4022;BME280;2025;48.260;16.432;2023-07-08T00:52:21;100393.22;;;14.08;76.02
4022;BME280;2025;48.260;16.432;2023-07-08T00:54:53;100394.56;;;14.04;76.13
4022;BME280;2025;48.260;16.432;2023-07-08T00:57:24;100394.72;;;14.02;76.85
4022;BME280;2025;48.260;16.432;2023-07-08T00:59:57;100392.09;;;14.02;76.74
4022;BME280;2025;48.260;16.432;2023-07-08T01:02:26;100390.97;;;13.97;76.86
4022;BME280;2025;48.260;16.432;2023-07-08T01:04:58;100382.19;;;13.96;76.98
4022;BME280;2025;48.260;16.432;2023-07-08T01:07:28;100386.22;;;13.92;77.07
4022;BME280;2025;48.260;16.432;2023-07-08T01:10:01;100389.09;;;13.82;77.47
4022;BME280;2025;48.260;16.432;2023-07-08T01:12:33;100381.31;;;13.81;77.20
4022;BME280;2025;48.260;16.432;2023-07-08T01:15:02;100383.47;;;13.77;77.39
4022;BME280;2025;48.260;16.432;2023-07-08T01:17:30;100380.53;;;13.72;77.75
4022;BME280;2025;48.260;16.432;2023-07-08T01:19:59;100380.22;;;13.67;78.04
4022;BME280;2025;48.260;16.432;2023-07-08T01:22:27;100381.69;;;13.69;77.92
4022;BME280;2025;48.260;16.432;2023-07-08T01:24:58;100372.16;;;13.60;78.40
4022;BME280;2025;48.260;16.432;2023-07-08T01:27:29;100376.13;;;13.56;78.55
4022;BME280;2025;48.260;16.432;2023-07-08T01:29:56;100379.63;;;13.57;78.66
4022;BME280;2025;48.260;16.432;2023-07-08T01:32:24;100377.81;;;13.57;78.61
4022;BME280;2025;48.260;16.432;2023-07-08T01:34:52;100374.34;;;13.57;78.84
4022;BME280;2025;48.260;16.432;2023-07-08T01:37:34;100386.06;;;13.54;78.94
4022;BME280;2025;48.260;16.432;2023-07-08T01:40:26;100371.38;;;13.52;79.74
4022;BME280;2025;48.260;16.432;2023-07-08T01:42:54;100377.66;;;13.51;79.43
4022;BME280;2025;48.260;16.432;2023-07-08T01:45:24;100366.59;;;13.47;79.31
4022;BME280;2025;48.260;16.432;2023-07-08T01:47:54;100370.59;;;13.43;79.27
4022;BME280;2025;48.260;16.432;2023-07-08T01:50:23;100363.50;;;13.35;79.36
4022;BME280;2025;48.260;16.432;2023-07-08T01:52:53;100364.50;;;13.34;79.60
4022;BME280;2025;48.260;16.432;2023-07-08T01:55:24;100362.84;;;13.33;79.68
4022;BME280;2025;48.260;16.432;2023-07-08T01:57:51;100356.94;;;13.31;79.57
4022;BME280;2025;48.260;16.432;2023-07-08T02:00:19;100353.44;;;13.31;79.61
4022;BME280;2025;48.260;16.432;2023-07-08T02:02:47;100354.44;;;13.30;79.79
4022;BME280;2025;48.260;16.432;2023-07-08T02:05:14;100358.06;;;13.28;79.94
4022;BME280;2025;48.260;16.432;2023-07-08T02:07:41;100351.28;;;13.26;80.06
4022;BME280;2025;48.260;16.432;2023-07-08T02:10:10;100351.63;;;13.23;80.13
4022;BME280;2025;48.260;16.432;2023-07-08T02:12:37;100352.66;;;13.22;79.96
4022;BME280;2025;48.260;16.432;2023-07-08T02:15:05;100352.97;;;13.19;80.04
4022;BME280;2025;48.260;16.432;2023-07-08T02:17:32;100357.44;;;13.18;80.03
4022;BME280;2025;48.260;16.432;2023-07-08T02:19:59;100361.59;;;13.13;80.06
4022;BME280;2025;48.260;16.432;2023-07-08T02:22:26;100362.13;;;13.08;80.14
4022;BME280;2025;48.260;16.432;2023-07-08T02:24:53;100347.72;;;13.11;80.29
4022;BME280;2025;48.260;16.432;2023-07-08T02:27:22;100355.66;;;13.11;80.29
4022;BME280;2025;48.260;16.432;2023-07-08T02:29:48;100342.44;;;13.11;80.17
4022;BME280;2025;48.260;16.432;2023-07-08T02:32:15;100350.53;;;13.09;80.27
4022;BME280;2025;48.260;16.432;2023-07-08T02:34:42;100347.56;;;13.04;80.52
4022;BME280;2025;48.260;16.432;2023-07-08T02:37:09;100346.09;;;13.01;80.45
4022;BME280;2025;48.260;16.432;2023-07-08T02:39:36;100334.88;;;12.99;80.70
4022;BME280;2025;48.260;16.432;2023-07-08T02:42:04;100330.59;;;12.98;80.78
4022;BME280;2025;48.260;16.432;2023-07-08T02:44:32;100340.81;;;12.93;81.07
4022;BME280;2025;48.260;16.432;2023-07-08T02:46:59;100339.84;;;12.86;81.26
4022;BME280;2025;48.260;16.432;2023-07-08T02:49:26;100348.78;;;12.85;81.39
4022;BME280;2025;48.260;16.432;2023-07-08T02:51:53;100345.97;;;12.86;81.29
4022;BME280;2025;48.260;16.432;2023-07-08T02:54:20;100353.72;;;12.88;81.29
4022;BME280;2025;48.260;16.432;2023-07-08T02:56:47;100349.47;;;12.87;81.33
4022;BME280;2025;48.260;16.432;2023-07-08T02:59:14;100340.88;;;12.85;81.55
4022;BME280;2025;48.260;16.432;2023-07-08T03:01:42;100351.59;;;12.83;81.38
4022;BME280;2025;48.260;16.432;2023-07-08T03:04:13;100348.13;;;12.83;81.30
4022;BME280;2025;48.260;16.432;2023-07-08T03:06:40;100348.28;;;12.81;81.27
4022;BME280;2025;48.260;16.432;2023-07-08T03:09:07;100347.81;;;12.78;81.58
4022;BME280;2025;48.260;16.432;2023-07-08T03:11:34;100343.50;;;12.77;81.57
4022;BME280;2025;48.260;16.432;2023-07-08T03:14:01;100340.72;;;12.78;81.70
4022;BME280;2025;48.260;16.432;2023-07-08T03:16:28;100350.47;;;12.78;81.88
4022;BME280;2025;48.260;16.432;2023-07-08T03:18:57;100358.56;;;12.76;81.84
4022;BME280;2025;48.260;16.432;2023-07-08T03:21:24;100360.06;;;12.71;82.19
4022;BME280;2025;48.260;16.432;2023-07-08T03:23:51;100367.66;;;12.74;82.07
4022;BME280;2025;48.260;16.432;2023-07-08T03:26:20;100362.38;;;12.74;82.23
4022;BME280;2025;48.260;16.432;2023-07-08T03:28:48;100368.97;;;12.78;82.30
4022;BME280;2025;48.260;16.432;2023-07-08T03:31:15;100371.28;;;12.81;82.69
4022;BME280;2025;48.260;16.432;2023-07-08T03:33:42;100368.94;;;12.86;82.77
4022;BME280;2025;48.260;16.432;2023-07-08T03:36:13;100368.63;;;12.89;82.58
4022;BME280;2025;48.260;16.432;2023-07-08T03:38:41;100375.53;;;12.90;82.32
4022;BME280;2025;48.260;16.432;2023-07-08T03:41:08;100376.84;;;12.94;82.15
4022;BME280;2025;48.260;16.432;2023-07-08T03:43:35;100374.22;;;12.94;82.21
4022;BME280;2025;48.260;16.432;2023-07-08T03:46:02;100379.81;;;12.99;82.29
4022;BME280;2025;48.260;16.432;2023-07-08T03:48:29;100380.78;;;13.06;82.39
4022;BME280;2025;48.260;16.432;2023-07-08T03:50:56;100387.38;;;13.11;82.11
4022;BME280;2025;48.260;16.432;2023-07-08T03:53:24;100383.06;;;13.18;82.30
4022;BME280;2025;48.260;16.432;2023-07-08T03:55:51;100379.75;;;13.16;82.48
4022;BME280;2025;48.260;16.432;2023-07-08T03:58:18;100385.19;;;13.22;82.55
4022;BME280;2025;48.260;16.432;2023-07-08T04:00:45;100381.72;;;13.30;82.27
4022;BME280;2025;48.260;16.432;2023-07-08T04:03:12;100387.66;;;13.40;82.36
4022;BME280;2025;48.260;16.432;2023-07-08T04:05:39;100389.22;;;13.49;82.34
4022;BME280;2025;48.260;16.432;2023-07-08T04:08:06;100391.50;;;13.61;82.92
4022;BME280;2025;48.260;16.432;2023-07-08T04:10:34;100389.28;;;13.73;83.05
4022;BME280;2025;48.260;16.432;2023-07-08T04:13:01;100386.25;;;13.84;82.66
4022;BME280;2025;48.260;16.432;2023-07-08T04:15:28;100393.78;;;13.95;82.36
4022;BME280;2025;48.260;16.432;2023-07-08T04:17:55;100385.44;;;14.06;81.95
4022;BME280;2025;48.260;16.432;2023-07-08T04:20:23;100395.63;;;14.18;81.55
4022;BME280;2025;48.260;16.432;2023-07-08T04:22:50;100392.38;;;14.30;81.06
4022;BME280;2025;48.260;16.432;2023-07-08T04:25:18;100389.13;;;14.43;80.21
4022;BME280;2025;48.260;16.432;2023-07-08T04:27:46;100397.50;;;14.55;78.88
4022;BME280;2025;48.260;16.432;2023-07-08T04:30:20;100397.69;;;14.68;78.08
4022;BME280;2025;48.260;16.432;2023-07-08T04:32:49;100401.38;;;14.82;76.83
4022;BME280;2025;48.260;16.432;2023-07-08T04:35:17;100395.63;;;14.93;76.25
4022;BME280;2025;48.260;16.432;2023-07-08T04:37:44;100403.06;;;15.13;75.93
4022;BME280;2025;48.260;16.432;2023-07-08T04:40:17;100401.84;;;15.30;74.71
4022;BME280;2025;48.260;16.432;2023-07-08T04:42:46;100399.19;;;15.45;73.90
4022;BME280;2025;48.260;16.432;2023-07-08T04:45:17;100403.38;;;15.69;73.54
4022;BME280;2025;48.260;16.432;2023-07-08T04:47:45;100392.91;;;15.83;73.23
4022;BME280;2025;48.260;16.432;2023-07-08T04:50:17;100392.47;;;16.00;69.28
4022;BME280;2025;48.260;16.432;2023-07-08T04:52:45;100393.25;;;16.37;68.55
4022;BME280;2025;48.260;16.432;2023-07-08T04:55:13;100395.03;;;16.58;65.49
4022;BME280;2025;48.260;16.432;2023-07-08T04:57:40;100393.53;;;16.77;65.76
4022;BME280;2025;48.260;16.432;2023-07-08T05:00:13;100400.84;;;16.97;65.04
4022;BME280;2025;48.260;16.432;2023-07-08T05:02:42;100400.91;;;17.03;65.93
4022;BME280;2025;48.260;16.432;2023-07-08T05:05:09;100392.00;;;17.24;62.84
4022;BME280;2025;48.260;16.432;2023-07-08T05:07:36;100392.69;;;17.40;62.56
4022;BME280;2025;48.260;16.432;2023-07-08T05:10:03;100394.97;;;17.49;63.07
4022;BME280;2025;48.260;16.432;2023-07-08T05:12:30;100392.78;;;17.66;62.38
4022;BME280;2025;48.260;16.432;2023-07-08T05:14:57;100396.09;;;17.75;64.65
4022;BME280;2025;48.260;16.432;2023-07-08T05:17:27;100394.66;;;17.73;63.35
4022;BME280;2025;48.260;16.432;2023-07-08T05:19:54;100400.44;;;17.76;64.09
4022;BME280;2025;48.260;16.432;2023-07-08T05:22:23;100396.56;;;17.85;65.26
4022;BME280;2025;48.260;16.432;2023-07-08T05:24:51;100397.81;;;17.96;64.98
4022;BME280;2025;48.260;16.432;2023-07-08T05:27:20;100397.41;;;17.99;65.58
4022;BME280;2025;48.260;16.432;2023-07-08T05:29:48;100394.56;;;18.01;65.19
4022;BME280;2025;48.260;16.432;2023-07-08T05:32:15;100402.16;;;18.17;65.27
4022;BME280;2025;48.260;16.432;2023-07-08T05:34:44;100397.47;;;18.26;65.42
4022;BME280;2025;48.260;16.432;2023-07-08T05:37:11;100400.53;;;18.36;63.47
4022;BME280;2025;48.260;16.432;2023-07-08T05:39:38;100396.22;;;18.48;63.63
4022;BME280;2025;48.260;16.432;2023-07-08T05:42:05;100398.91;;;18.68;62.46
4022;BME280;2025;48.260;16.432;2023-07-08T05:44:32;100400.34;;;18.84;61.71
4022;BME280;2025;48.260;16.432;2023-07-08T05:46:59;100393.94;;;18.99;61.52
4022;BME280;2025;48.260;16.432;2023-07-08T05:49:26;100387.00;;;18.91;62.63
4022;BME280;2025;48.260;16.432;2023-07-08T05:51:54;100384.88;;;19.13;62.26
4022;BME280;2025;48.260;16.432;2023-07-08T05:54:21;100382.16;;;19.33;61.14
4022;BME280;2025;48.260;16.432;2023-07-08T05:56:48;100385.97;;;19.50;61.27
4022;BME280;2025;48.260;16.432;2023-07-08T05:59:15;100382.00;;;19.66;59.99
4022;BME280;2025;48.260;16.432;2023-07-08T06:01:42;100386.28;;;19.67;60.02
4022;BME280;2025;48.260;16.432;2023-07-08T06:04:09;100376.78;;;19.85;58.77
4022;BME280;2025;48.260;16.432;2023-07-08T06:06:36;100379.59;;;19.96;59.22
4022;BME280;2025;48.260;16.432;2023-07-08T06:09:04;100382.00;;;20.05;59.63
4022;BME280;2025;48.260;16.432;2023-07-08T06:11:31;100378.47;;;20.11;60.37
4022;BME280;2025;48.260;16.432;2023-07-08T06:13:58;100387.66;;;20.21;58.95
4022;BME280;2025;48.260;16.432;2023-07-08T06:16:25;100383.09;;;20.22;58.44
4022;BME280;2025;48.260;16.432;2023-07-08T06:18:52;100380.00;;;20.25;57.65
4022;BME280;2025;48.260;16.432;2023-07-08T06:21:19;100383.94;;;20.48;57.21
4022;BME280;2025;48.260;16.432;2023-07-08T06:23:46;100382.53;;;20.70;56.62
4022;BME280;2025;48.260;16.432;2023-07-08T06:26:15;100383.28;;;20.77;56.89
4022;BME280;2025;48.260;16.432;2023-07-08T06:28:42;100387.06;;;20.88;55.19
4022;BME280;2025;48.260;16.432;2023-07-08T06:31:09;100385.09;;;21.02;52.49
4022;BME280;2025;48.260;16.432;2023-07-08T06:33:35;100378.25;;;21.06;52.72
4022;BME280;2025;48.260;16.432;2023-07-08T06:36:03;100376.69;;;21.17;54.65
4022;BME280;2025;48.260;16.432;2023-07-08T06:38:30;100376.38;;;21.07;53.25
4022;BME280;2025;48.260;16.432;2023-07-08T06:40:57;100380.25;;;21.11;52.34
4022;BME280;2025;48.260;16.432;2023-07-08T06:43:25;100361.50;;;21.29;51.59
4022;BME280;2025;48.260;16.432;2023-07-08T06:45:52;100375.13;;;21.46;51.78
4022;BME280;2025;48.260;16.432;2023-07-08T06:48:19;100362.03;;;21.38;51.42
4022;BME280;2025;48.260;16.432;2023-07-08T06:50:46;100360.16;;;21.57;49.80
4022;BME280;2025;48.260;16.432;2023-07-08T06:53:14;100358.53;;;21.67;49.23
4022;BME280;2025;48.260;16.432;2023-07-08T06:55:43;100354.59;;;21.70;50.50
4022;BME280;2025;48.260;16.432;2023-07-08T06:58:10;100353.59;;;21.83;49.77
4022;BME280;2025;48.260;16.432;2023-07-08T07:00:41;100356.50;;;21.81;49.91
4022;BME280;2025;48.260;16.432;2023-07-08T07:03:08;100358.88;;;21.89;49.54
4022;BME280;2025;48.260;16.432;2023-07-08T07:05:35;100349.38;;;21.75;50.70
4022;BME280;2025;48.260;16.432;2023-07-08T07:08:03;100355.50;;;22.06;47.88
4022;BME280;2025;48.260;16.432;2023-07-08T07:10:32;100357.91;;;22.26;49.10
4022;BME280;2025;48.260;16.432;2023-07-08T07:12:59;100364.13;;;22.38;47.33
4022;BME280;2025;48.260;16.432;2023-07-08T07:15:26;100356.88;;;22.50;47.44
4022;BME280;2025;48.260;16.432;2023-07-08T07:17:57;100357.09;;;22.61;47.56
4022;BME280;2025;48.260;16.432;2023-07-08T07:20:25;100356.75;;;22.69;46.70
4022;BME280;2025;48.260;16.432;2023-07-08T07:22:52;100352.66;;;22.78;47.05
4022;BME280;2025;48.260;16.432;2023-07-08T07:25:19;100360.72;;;22.90;46.67
4022;BME280;2025;48.260;16.432;2023-07-08T07:27:46;100354.16;;;22.98;47.67
4022;BME280;2025;48.260;16.432;2023-07-08T07:30:13;100361.88;;;22.94;47.31
4022;BME280;2025;48.260;16.432;2023-07-08T07:32:41;100352.66;;;22.78;48.57
4022;BME280;2025;48.260;16.432;2023-07-08T07:35:10;100371.25;;;22.80;48.32
4022;BME280;2025;48.260;16.432;2023-07-08T07:37:40;100354.41;;;23.08;46.75
4022;BME280;2025;48.260;16.432;2023-07-08T07:40:08;100363.94;;;23.27;47.13
4022;BME280;2025;48.260;16.432;2023-07-08T07:42:38;100353.03;;;23.34;46.31
4022;BME280;2025;48.260;16.432;2023-07-08T07:45:06;100353.75;;;23.29;45.77
4022;BME280;2025;48.260;16.432;2023-07-08T07:47:33;100366.97;;;23.19;48.26
4022;BME280;2025;48.260;16.432;2023-07-08T07:50:00;100356.97;;;23.43;47.52
4022;BME280;2025;48.260;16.432;2023-07-08T07:52:29;100354.44;;;23.65;46.60
4022;BME280;2025;48.260;16.432;2023-07-08T07:54:56;100345.97;;;23.73;45.05
4022;BME280;2025;48.260;16.432;2023-07-08T07:57:23;100351.13;;;23.75;46.07
4022;BME280;2025;48.260;16.432;2023-07-08T07:59:50;100359.41;;;23.85;45.46
4022;BME280;2025;48.260;16.432;2023-07-08T08:02:17;100348.16;;;24.05;44.67
4022;BME280;2025;48.260;16.432;2023-07-08T08:04:45;100352.91;;;24.32;44.22
4022;BME280;2025;48.260;16.432;2023-07-08T08:07:12;100358.28;;;24.32;43.33
4022;BME280;2025;48.260;16.432;2023-07-08T08:09:40;100356.22;;;24.39;44.08
4022;BME280;2025;48.260;16.432;2023-07-08T08:12:08;100350.44;;;24.30;43.99
4022;BME280;2025;48.260;16.432;2023-07-08T08:14:36;100354.22;;;24.29;43.93
4022;BME280;2025;48.260;16.432;2023-07-08T08:17:04;100348.72;;;24.24;44.65
4022;BME280;2025;48.260;16.432;2023-07-08T08:19:31;100343.66;;;24.45;43.13
4022;BME280;2025;48.260;16.432;2023-07-08T08:21:58;100346.84;;;24.58;43.03
4022;BME280;2025;48.260;16.432;2023-07-08T08:24:25;100340.31;;;24.71;41.93
4022;BME280;2025;48.260;16.432;2023-07-08T08:26:54;100339.88;;;24.79;41.73
4022;BME280;2025;48.260;16.432;2023-07-08T08:29:21;100341.13;;;24.72;42.43
4022;BME280;2025;48.260;16.432;2023-07-08T08:31:48;100343.00;;;24.71;43.42
4022;BME280;2025;48.260;16.432;2023-07-08T08:34:16;100349.09;;;24.84;43.36
4022;BME280;2025;48.260;16.432;2023-07-08T08:36:43;100345.38;;;24.68;43.56
4022;BME280;2025;48.260;16.432;2023-07-08T08:39:10;100346.91;;;24.80;42.75
4022;BME280;2025;48.260;16.432;2023-07-08T08:41:38;100340.81;;;24.90;43.94
4022;BME280;2025;48.260;16.432;2023-07-08T08:44:12;100329.41;;;25.05;43.06
4022;BME280;2025;48.260;16.432;2023-07-08T08:46:45;100335.28;;;25.19;44.24
4022;BME280;2025;48.260;16.432;2023-07-08T08:49:21;100338.06;;;25.07;45.78
4022;BME280;2025;48.260;16.432;2023-07-08T08:51:50;100336.06;;;25.19;44.03
4022;BME280;2025;48.260;16.432;2023-07-08T08:54:17;100331.47;;;25.42;42.52
4022;BME280;2025;48.260;16.432;2023-07-08T08:56:51;100330.38;;;25.65;41.74
4022;BME280;2025;48.260;16.432;2023-07-08T08:59:27;100335.72;;;25.87;39.99
4022;BME280;2025;48.260;16.432;2023-07-08T09:01:56;100333.47;;;25.79;40.62
4022;BME280;2025;48.260;16.432;2023-07-08T09:04:25;100323.91;;;25.93;39.47
4022;BME280;2025;48.260;16.432;2023-07-08T09:07:03;100317.53;;;26.04;39.79
4022;BME280;2025;48.260;16.432;2023-07-08T09:09:36;100315.22;;;26.23;37.66
4022;BME280;2025;48.260;16.432;2023-07-08T09:12:08;100308.81;;;26.30;37.65
4022;BME280;2025;48.260;16.432;2023-07-08T09:14:38;100310.38;;;26.25;36.60
4022;BME280;2025;48.260;16.432;2023-07-08T09:17:17;100304.78;;;26.32;35.67
4022;BME280;2025;48.260;16.432;2023-07-08T09:19:49;100301.75;;;26.28;38.94
4022;BME280;2025;48.260;16.432;2023-07-08T09:22:21;100305.41;;;26.49;36.88
4022;BME280;2025;48.260;16.432;2023-07-08T09:24:55;100304.09;;;26.57;39.60
4022;BME280;2025;48.260;16.432;2023-07-08T09:27:25;100301.00;;;26.81;35.83
4022;BME280;2025;48.260;16.432;2023-07-08T09:29:53;100302.63;;;26.87;39.18
4022;BME280;2025;48.260;16.432;2023-07-08T09:32:22;100297.81;;;26.94;36.38
4022;BME280;2025;48.260;16.432;2023-07-08T09:34:51;100294.63;;;27.07;36.17
4022;BME280;2025;48.260;16.432;2023-07-08T09:37:25;100293.00;;;27.06;35.29
4022;BME280;2025;48.260;16.432;2023-07-08T09:39:53;100289.22;;;27.18;33.73
4022;BME280;2025;48.260;16.432;2023-07-08T09:42:22;100296.28;;;27.19;35.54
4022;BME280;2025;48.260;16.432;2023-07-08T09:44:57;100286.84;;;27.37;33.82
4022;BME280;2025;48.260;16.432;2023-07-08T09:47:26;100276.06;;;27.57;33.31
4022;BME280;2025;48.260;16.432;2023-07-08T09:49:57;100276.06;;;27.52;32.61
4022;BME280;2025;48.260;16.432;2023-07-08T09:52:24;100273.91;;;27.54;33.67
4022;BME280;2025;48.260;16.432;2023-07-08T09:54:51;100277.69;;;27.43;33.13
4022;BME280;2025;48.260;16.432;2023-07-08T09:57:26;100268.78;;;27.63;32.08
4022;BME280;2025;48.260;16.432;2023-07-08T09:59:58;100271.75;;;27.71;33.89
4022;BME280;2025;48.260;16.432;2023-07-08T10:02:31;100274.72;;;27.80;31.19
4022;BME280;2025;48.260;16.432;2023-07-08T10:05:00;100257.13;;;27.83;30.68
4022;BME280;2025;48.260;16.432;2023-07-08T10:07:30;100268.50;;;27.59;31.14
4022;BME280;2025;48.260;16.432;2023-07-08T10:10:00;100259.56;;;27.69;30.67
4022;BME280;2025;48.260;16.432;2023-07-08T10:12:30;100250.91;;;27.67;31.07
4022;BME280;2025;48.260;16.432;2023-07-08T10:15:01;100262.84;;;27.81;34.72
4022;BME280;2025;48.260;16.432;2023-07-08T10:17:32;100256.88;;;28.05;31.12
4022;BME280;2025;48.260;16.432;2023-07-08T10:19:59;100253.88;;;28.22;31.84
4022;BME280;2025;48.260;16.432;2023-07-08T10:22:36;100265.19;;;28.49;29.53
4022;BME280;2025;48.260;16.432;2023-07-08T10:25:13;100254.03;;;28.66;29.44
4022;BME280;2025;48.260;16.432;2023-07-08T10:27:48;100247.25;;;28.64;31.44
4022;BME280;2025;48.260;16.432;2023-07-08T10:30:21;100248.41;;;29.02;29.78
4022;BME280;2025;48.260;16.432;2023-07-08T10:36:01;100251.75;;;30.02;27.72
4022;BME280;2025;48.260;16.432;2023-07-08T10:38:43;100252.22;;;29.85;28.29
4022;BME280;2025;48.260;16.432;2023-07-08T10:41:28;100256.97;;;29.98;27.96
4022;BME280;2025;48.260;16.432;2023-07-08T10:44:04;100243.34;;;30.03;28.71
4022;BME280;2025;48.260;16.432;2023-07-08T10:46:43;100245.59;;;30.20;28.50
4022;BME280;2025;48.260;16.432;2023-07-08T10:49:31;100241.50;;;30.23;28.48
4022;BME280;2025;48.260;16.432;2023-07-08T10:52:14;100244.31;;;30.42;28.76
4022;BME280;2025;48.260;16.432;2023-07-08T10:54:55;100244.28;;;30.18;27.64
4022;BME280;2025;48.260;16.432;2023-07-08T11:00:27;100231.75;;;29.93;30.43
4022;BME280;2025;48.260;16.432;2023-07-08T11:03:30;100228.66;;;30.34;26.73
4022;BME280;2025;48.260;16.432;2023-07-08T11:06:06;100233.78;;;30.59;26.86
4022;BME280;2025;48.260;16.432;2023-07-08T11:08:40;100237.38;;;30.55;26.55
4022;BME280;2025;48.260;16.432;2023-07-08T11:11:25;100225.66;;;30.35;24.79
4022;BME280;2025;48.260;16.432;2023-07-08T11:14:00;100224.88;;;30.30;25.36
4022;BME280;2025;48.260;16.432;2023-07-08T11:16:31;100223.06;;;30.20;26.44
4022;BME280;2025;48.260;16.432;2023-07-08T11:19:04;100220.25;;;30.30;25.57
4022;BME280;2025;48.260;16.432;2023-07-08T11:21:36;100222.66;;;30.56;26.14
4022;BME280;2025;48.260;16.432;2023-07-08T11:24:11;100220.44;;;30.39;25.24
4022;BME280;2025;48.260;16.432;2023-07-08T11:26:44;100209.38;;;30.30;25.89
4022;BME280;2025;48.260;16.432;2023-07-08T11:29:16;100212.56;;;30.37;25.71
4022;BME280;2025;48.260;16.432;2023-07-08T11:31:44;100211.47;;;30.14;26.85
4022;BME280;2025;48.260;16.432;2023-07-08T11:34:16;100201.84;;;30.27;25.75
4022;BME280;2025;48.260;16.432;2023-07-08T11:36:44;100219.84;;;30.42;27.28
4022;BME280;2025;48.260;16.432;2023-07-08T11:39:32;100210.72;;;30.57;26.75
4022;BME280;2025;48.260;16.432;2023-07-08T11:42:18;100218.53;;;30.39;26.62
4022;BME280;2025;48.260;16.432;2023-07-08T11:44:49;100221.31;;;30.34;25.83
4022;BME280;2025;48.260;16.432;2023-07-08T11:47:21;100213.44;;;30.57;26.24
4022;BME280;2025;48.260;16.432;2023-07-08T11:49:53;100212.44;;;30.91;25.10
4022;BME280;2025;48.260;16.432;2023-07-08T11:52:22;100211.88;;;30.94;26.71
4022;BME280;2025;48.260;16.432;2023-07-08T11:54:57;100212.75;;;31.08;24.66
4022;BME280;2025;48.260;16.432;2023-07-08T11:57:29;100203.56;;;31.04;25.62
4022;BME280;2025;48.260;16.432;2023-07-08T12:00:15;100194.91;;;31.35;28.46
4022;BME280;2025;48.260;16.432;2023-07-08T12:02:52;100190.44;;;31.25;25.01
4022;BME280;2025;48.260;16.432;2023-07-08T12:05:29;100183.03;;;31.12;25.74
4022;BME280;2025;48.260;16.432;2023-07-08T12:07:57;100187.31;;;30.99;25.53
4022;BME280;2025;48.260;16.432;2023-07-08T12:10:28;100173.81;;;30.94;25.84
4022;BME280;2025;48.260;16.432;2023-07-08T12:12:57;100181.03;;;30.79;25.51
4022;BME280;2025;48.260;16.432;2023-07-08T12:15:25;100179.16;;;30.80;26.17
4022;BME280;2025;48.260;16.432;2023-07-08T12:17:55;100192.03;;;30.50;27.11
4022;BME280;2025;48.260;16.432;2023-07-08T12:20:27;100177.94;;;30.48;26.80
4022;BME280;2025;48.260;16.432;2023-07-08T12:22:55;100183.94;;;30.88;25.66
4022;BME280;2025;48.260;16.432;2023-07-08T12:25:25;100172.41;;;30.96;25.40
4022;BME280;2025;48.260;16.432;2023-07-08T12:27:52;100178.50;;;30.88;26.70
4022;BME280;2025;48.260;16.432;2023-07-08T12:30:19;100175.69;;;30.93;27.01
4022;BME280;2025;48.260;16.432;2023-07-08T12:32:46;100172.94;;;30.74;26.34
4022;BME280;2025;48.260;16.432;2023-07-08T12:35:21;100155.25;;;30.77;27.09
4022;BME280;2025;48.260;16.432;2023-07-08T12:37:51;100168.56;;;30.97;25.35
4022;BME280;2025;48.260;16.432;2023-07-08T12:40:19;100163.94;;;31.17;26.41
4022;BME280;2025;48.260;16.432;2023-07-08T12:42:46;100169.88;;;31.00;25.93
4022;BME280;2025;48.260;16.432;2023-07-08T12:45:16;100165.69;;;30.70;26.13
4022;BME280;2025;48.260;16.432;2023-07-08T12:47:44;100168.06;;;30.95;26.33
4022;BME280;2025;48.260;16.432;2023-07-08T12:50:12;100162.69;;;30.71;25.58
4022;BME280;2025;48.260;16.432;2023-07-08T12:52:40;100160.22;;;30.94;25.71
4022;BME280;2025;48.260;16.432;2023-07-08T12:55:10;100154.88;;;31.02;27.57
4022;BME280;2025;48.260;16.432;2023-07-08T12:57:37;100153.59;;;31.33;25.20
4022;BME280;2025;48.260;16.432;2023-07-08T13:00:05;100157.34;;;31.37;23.56
4022;BME280;2025;48.260;16.432;2023-07-08T13:02:37;100151.69;;;31.33;24.27
4022;BME280;2025;48.260;16.432;2023-07-08T13:05:06;100151.84;;;31.23;25.78
4022;BME280;2025;48.260;16.432;2023-07-08T13:07:38;100143.72;;;31.37;25.84
4022;BME280;2025;48.260;16.432;2023-07-08T13:10:16;100138.59;;;31.68;26.13
4022;BME280;2025;48.260;16.432;2023-07-08T13:12:45;100151.47;;;31.29;24.77
4022;BME280;2025;48.260;16.432;2023-07-08T13:15:19;100148.88;;;31.05;24.55
4022;BME280;2025;48.260;16.432;2023-07-08T13:17:47;100132.94;;;30.80;26.02